RJCC/CTS METAR and TAF weather

Enter ICAO airport designator
Station Type Date Time Source
RJCC METAR 2021/05/16 00:00 UTC NOAA

RJCC 160000Z 16013KT 9999 -SHRA FEW010 BKN040 14/12 Q1010


Station Type Date Time Source
RJCC Decoded METAR 2021/05/16 00:00 UTC NOAA

Chitose Ab, Japan (RJCC) 42-48N 141-40E 30M
May 15, 2021 - 08:00 PM EDT / 2021.05.16 0000 UTC
Wind: from the SSE (160 degrees) at 15 MPH (13 KT):0
Visibility: greater than 7 mile(s):0
Sky conditions: mostly cloudy
Weather: light rain showers
Temperature: 57 F (14 C)
Dew Point: 53 F (12 C)
Relative Humidity: 87%
Pressure (altimeter): 29.83 in. Hg (1010 hPa)
ob: RJCC 160000Z 16013KT 9999 -SHRA FEW010 BKN040 14/12 Q1010
cycle: 0

Station Type Date Time Source
RJCC TAF 2021/05/15 18:31 UTC NOAA

TAF RJCC 151705Z 1518/1700 16016KT 9999 FEW008 BKN015
TEMPO 1521/1605 FEW005 BKN008
TEMPO 1605/1609 4000 -SHRA BR FEW003 BKN006
TEMPO 1609/1621 3000 SHRA BR FEW002 BKN004
BECMG 1615/1618 34007KT
TEMPO 1621/1700 4000 -SHRA BR FEW003 BKN006

Example: see airport list